Time;durP1;ratioP1;P1;durP2;ratioP2;P2;SDS_P1;SDS_P2;PMS_P1;PMS_P2;Temp;Humidity;BMP_temperature;BMP_pressure;BME280_temperature;BME280_humidity;BME280_pressure;Samples;Min_cycle;Max_cycle;Signal;HPM_P1;HPM_P2
2023/01/15 00:01:35;;;;;;;17.87;2.77;;;;;;;14.31;100.00;99627.09;5060553;28;20029;-54
2023/01/15 00:04:03;;;;;;;18.55;2.22;;;;;;;14.94;100.00;99639.38;5057340;28;20100;-54
2023/01/15 00:06:31;;;;;;;15.93;2.03;;;;;;;14.55;100.00;99624.13;5058505;28;20088;-56
2023/01/15 00:08:57;;;;;;;12.80;3.20;;;;;;;15.65;100.00;99632.16;5061512;28;20262;-57
2023/01/15 00:11:23;;;;;;;16.75;1.90;;;;;;;15.17;100.00;99634.75;5058787;28;20279;-56
2023/01/15 00:13:49;;;;;;;15.95;2.20;;;;;;;14.99;100.00;99636.75;5061873;28;20037;-52
2023/01/15 00:16:17;;;;;;;20.03;4.93;;;;;;;15.02;100.00;99646.19;5059128;28;20029;-54
2023/01/15 00:18:42;;;;;;;19.47;2.40;;;;;;;15.10;100.00;99661.06;5062824;28;20266;-54
2023/01/15 00:21:11;;;;;;;9.32;2.20;;;;;;;16.11;100.00;99641.66;5062466;28;20327;-57
2023/01/15 00:29:09;;;;;;;14.30;3.17;;;;;;;14.86;100.00;99637.94;5065515;28;20274;-56
2023/01/15 00:31:35;;;;;;;17.05;1.85;;;;;;;15.25;100.00;99637.00;5062558;28;20301;-57
2023/01/15 00:34:02;;;;;;;14.95;2.22;;;;;;;14.82;100.00;99641.41;5062028;28;20053;-56
2023/01/15 00:36:28;;;;;;;8.88;1.85;;;;;;;14.84;100.00;99632.00;5063373;28;20033;-54
2023/01/15 00:38:54;;;;;;;14.85;2.22;;;;;;;15.70;100.00;99617.94;5062632;28;20033;-55
2023/01/15 00:41:19;;;;;;;15.50;2.10;;;;;;;14.94;100.00;99625.91;5064855;28;20059;-53
2023/01/15 00:43:45;;;;;;;17.57;1.97;;;;;;;15.38;100.00;99626.84;5062437;28;20037;-55
2023/01/15 00:46:12;;;;;;;8.43;1.63;;;;;;;15.55;100.00;99637.47;5062368;28;20282;-55
2023/01/15 00:48:39;;;;;;;10.30;1.88;;;;;;;15.19;100.00;99641.50;5058950;28;20266;-54
2023/01/15 00:51:05;;;;;;;12.53;2.47;;;;;;;15.26;100.00;99645.88;5063513;28;20041;-54
2023/01/15 00:53:31;;;;;;;8.43;1.73;;;;;;;15.14;100.00;99643.34;5050400;28;20359;-56
2023/01/15 00:55:56;;;;;;;12.70;2.03;;;;;;;15.29;100.00;99648.88;5061799;28;20060;-54
2023/01/15 00:58:22;;;;;;;22.42;2.22;;;;;;;15.62;99.78;99633.50;5067066;28;20032;-53
2023/01/15 01:00:56;;;;;;;15.98;2.80;;;;;;;15.41;100.00;99650.56;5034156;28;20042;-55
2023/01/15 01:03:23;;;;;;;12.20;2.10;;;;;;;15.70;100.00;99648.38;5062135;28;20029;-52
2023/01/15 01:05:49;;;;;;;14.13;2.50;;;;;;;15.48;99.97;99635.81;5057984;28;20308;-54
2023/01/15 01:08:16;;;;;;;10.65;1.83;;;;;;;15.04;100.00;99650.25;5060171;28;20111;-54
2023/01/15 01:10:42;;;;;;;12.68;2.10;;;;;;;15.42;100.00;99638.72;5053936;28;20034;-54
2023/01/15 01:13:08;;;;;;;11.77;1.75;;;;;;;15.52;98.90;99663.06;5057285;28;20037;-54
2023/01/15 01:15:35;;;;;;;13.70;2.10;;;;;;;15.47;100.00;99653.06;5060991;28;20088;-51
2023/01/15 01:18:01;;;;;;;9.95;2.15;;;;;;;15.54;100.00;99647.44;5058762;28;20045;-55
2023/01/15 01:20:27;;;;;;;12.20;1.97;;;;;;;15.16;100.00;99652.78;5058594;28;20051;-54
2023/01/15 01:22:53;;;;;;;20.63;2.73;;;;;;;14.39;100.00;99676.94;5057554;28;20270;-51
2023/01/15 01:25:19;;;;;;;14.75;1.85;;;;;;;14.42;100.00;99654.91;5058815;28;20039;-56
2023/01/15 01:27:45;;;;;;;13.38;2.40;;;;;;;14.70;100.00;99654.97;5061209;28;20088;-57
2023/01/15 01:30:12;;;;;;;11.40;1.55;;;;;;;14.48;100.00;99653.91;5060069;28;20101;-53
2023/01/15 01:32:39;;;;;;;18.63;2.30;;;;;;;15.39;100.00;99655.41;5061754;28;20101;-53
2023/01/15 01:35:04;;;;;;;13.10;2.10;;;;;;;14.55;100.00;99642.19;5057630;28;20277;-52
2023/01/15 01:37:31;;;;;;;5.88;1.35;;;;;;;14.76;100.00;99643.22;5060784;28;20075;-55
2023/01/15 01:39:57;;;;;;;14.63;1.63;;;;;;;14.43;100.00;99650.38;5061043;28;20029;-56
2023/01/15 01:42:24;;;;;;;20.98;1.98;;;;;;;14.47;100.00;99641.53;5060862;28;20255;-52
2023/01/15 01:44:50;;;;;;;9.90;2.10;;;;;;;14.36;100.00;99639.78;5063442;28;20034;-53
2023/01/15 01:47:25;;;;;;;16.63;2.57;;;;;;;14.36;100.00;99666.69;5059384;28;20044;-54
2023/01/15 01:49:56;;;;;;;14.53;1.73;;;;;;;14.93;100.00;99661.97;5060257;28;20056;-51
2023/01/15 01:52:38;;;;;;;10.73;1.83;;;;;;;14.25;100.00;99648.78;5060804;28;20266;-54
2023/01/15 01:55:05;;;;;;;19.88;2.08;;;;;;;14.97;100.00;99649.63;5057876;28;20270;-54
2023/01/15 01:57:31;;;;;;;30.60;2.47;;;;;;;14.28;100.00;99662.56;5060423;28;20040;-53
2023/01/15 02:00:00;;;;;;;11.00;1.80;;;;;;;14.89;100.00;99660.88;5061709;28;20029;-55
2023/01/15 02:02:26;;;;;;;15.30;2.07;;;;;;;14.87;100.00;99654.91;5063025;28;20052;-54
2023/01/15 02:04:53;;;;;;;9.53;1.90;;;;;;;14.37;100.00;99649.50;5062838;28;20346;-55
2023/01/15 02:07:19;;;;;;;13.60;2.40;;;;;;;14.43;100.00;99640.41;5057449;28;20262;-52
2023/01/15 02:09:44;;;;;;;13.95;1.90;;;;;;;14.00;100.00;99636.63;5059189;28;20102;-55
2023/01/15 02:12:23;;;;;;;16.27;1.77;;;;;;;14.34;100.00;99633.84;5055501;28;20033;-55
2023/01/15 02:15:08;;;;;;;11.00;2.50;;;;;;;14.10;100.00;99642.16;5058119;28;20021;-56
2023/01/15 02:17:48;;;;;;;11.13;2.72;;;;;;;14.52;100.00;99639.97;5058491;28;20028;-54
2023/01/15 02:20:39;;;;;;;7.60;1.50;;;;;;;15.09;100.00;99646.00;5056375;28;20090;-56
2023/01/15 02:23:18;;;;;;;16.63;2.97;;;;;;;14.55;100.00;99637.59;5063057;28;20273;-53
2023/01/15 02:26:09;;;;;;;10.90;1.37;;;;;;;14.39;100.00;99649.22;5057804;28;20049;-56
2023/01/15 02:28:39;;;;;;;8.80;2.40;;;;;;;14.31;100.00;99672.00;5056271;28;20262;-50
2023/01/15 02:31:13;;;;;;;9.57;1.70;;;;;;;14.44;100.00;99638.53;5060451;28;20270;-51
2023/01/15 02:34:02;;;;;;;17.10;2.30;;;;;;;14.20;100.00;99636.09;5058346;28;20289;-53
2023/01/15 02:36:33;;;;;;;20.80;3.10;;;;;;;14.47;100.00;99641.53;5058452;28;20018;-50
2023/01/15 02:39:04;;;;;;;13.93;2.53;;;;;;;14.39;100.00;99674.25;5057751;28;20285;-59
2023/01/15 02:41:38;;;;;;;7.50;1.50;;;;;;;15.04;100.00;99631.41;5059431;28;20297;-54
2023/01/15 02:44:07;;;;;;;11.33;1.87;;;;;;;14.73;99.50;99635.66;5057874;28;20056;-55
2023/01/15 02:46:35;;;;;;;16.67;3.47;;;;;;;14.74;100.00;99630.03;5056280;28;20312;-54
2023/01/15 02:49:07;;;;;;;10.33;2.20;;;;;;;14.34;100.00;99652.69;5049991;28;20268;-53
2023/01/15 02:51:56;;;;;;;13.63;1.77;;;;;;;14.93;99.54;99642.34;5055647;28;20300;-53
2023/01/15 02:54:27;;;;;;;11.77;2.00;;;;;;;14.73;100.00;99644.53;5058678;28;20052;-55
2023/01/15 02:56:55;;;;;;;20.77;2.67;;;;;;;14.68;100.00;99640.97;5059670;28;20028;-53
2023/01/15 02:59:28;;;;;;;12.35;2.28;;;;;;;14.25;100.00;99643.41;5050407;28;20489;-55
2023/01/15 03:02:04;;;;;;;11.48;1.70;;;;;;;14.52;100.00;99637.28;5059144;28;20092;-52
2023/01/15 03:04:57;;;;;;;15.02;2.67;;;;;;;14.62;98.98;99632.03;5043440;28;20080;-55
2023/01/15 03:07:31;;;;;;;5.43;1.88;;;;;;;14.50;99.72;99624.09;5056107;28;20044;-53
2023/01/15 03:09:57;;;;;;;14.67;1.93;;;;;;;14.82;99.09;99633.34;5057762;28;20033;-52
2023/01/15 03:12:28;;;;;;;10.18;1.70;;;;;;;14.84;99.09;99628.53;5059085;28;20285;-56
2023/01/15 03:16:33;;;;;;;15.98;1.98;;;;;;;14.26;100.00;99624.34;5066055;28;20045;-55
2023/01/15 03:18:07;;;;;;;10.68;1.70;;;;;;;14.54;100.00;99627.91;5061558;28;20040;-55
2023/01/15 03:20:35;;;;;;;9.82;1.90;;;;;;;14.46;100.00;99626.47;5067782;28;20033;-52
2023/01/15 03:23:09;;;;;;;15.60;2.63;;;;;;;14.73;99.48;99644.53;5064198;28;20032;-55
2023/01/15 03:25:42;;;;;;;10.32;1.55;;;;;;;14.35;100.00;99643.56;5062302;28;20304;-53
2023/01/15 03:28:12;;;;;;;16.38;1.83;;;;;;;14.93;99.20;99618.91;5042501;28;20042;-54
2023/01/15 03:30:38;;;;;;;15.90;1.60;;;;;;;14.79;98.33;99628.47;5061528;28;20032;-56
2023/01/15 03:33:04;;;;;;;14.93;2.33;;;;;;;14.94;97.40;99625.91;5065173;28;20046;-56
2023/01/15 03:35:45;;;;;;;14.18;3.22;;;;;;;14.70;99.12;99620.00;5063721;28;20028;-56
2023/01/15 03:38:27;;;;;;;12.88;2.47;;;;;;;14.25;98.51;99629.94;5061455;28;20033;-55
2023/01/15 03:41:06;;;;;;;8.90;1.80;;;;;;;14.38;100.00;99626.91;5065281;28;20029;-58
2023/01/15 03:44:04;;;;;;;13.77;1.80;;;;;;;14.35;100.00;99632.78;5063543;28;20029;-56
2023/01/15 03:46:56;;;;;;;16.23;1.60;;;;;;;14.06;100.00;99635.63;5064610;28;20033;-56
2023/01/15 03:49:48;;;;;;;13.18;1.58;;;;;;;14.27;100.00;99625.97;5062426;28;20105;-56
2023/01/15 03:53:09;;;;;;;17.48;1.67;;;;;;;14.36;100.00;99618.28;5063561;28;20052;-56
2023/01/15 03:56:00;;;;;;;17.33;1.80;;;;;;;14.82;98.26;99614.50;5059438;28;20021;-57
2023/01/15 03:58:34;;;;;;;10.00;1.50;;;;;;;14.37;100.00;99608.31;5057544;28;20025;-59
2023/01/15 04:01:09;;;;;;;4.78;1.42;;;;;;;14.05;100.00;99607.13;5066850;28;20029;-56
2023/01/15 04:03:36;;;;;;;17.83;2.50;;;;;;;14.60;98.48;99613.44;5058143;28;20037;-56
2023/01/15 04:06:05;;;;;;;17.95;3.03;;;;;;;14.27;100.00;99604.47;5060010;28;20034;-57
2023/01/15 04:08:36;;;;;;;4.95;2.03;;;;;;;14.22;100.00;99606.25;5063979;28;20088;-56
2023/01/15 04:11:03;;;;;;;11.82;1.83;;;;;;;14.62;99.33;99613.19;5059769;28;20087;-54
2023/01/15 04:13:32;;;;;;;6.45;1.75;;;;;;;14.30;98.94;99608.50;5061671;28;20044;-56
2023/01/15 04:15:58;;;;;;;9.77;1.70;;;;;;;13.89;100.00;99624.91;5059741;28;20029;-55
2023/01/15 04:18:24;;;;;;;11.32;2.53;;;;;;;13.65;100.00;99606.31;5060847;28;20063;-56
2023/01/15 04:20:51;;;;;;;11.57;2.30;;;;;;;13.89;100.00;99609.63;5059142;28;20060;-56
2023/01/15 04:23:17;;;;;;;8.60;1.45;;;;;;;13.69;100.00;99612.00;5060483;28;20122;-56
2023/01/15 04:25:42;;;;;;;11.20;1.57;;;;;;;13.89;100.00;99630.28;5064155;28;20041;-56
2023/01/15 04:28:08;;;;;;;13.52;2.83;;;;;;;14.03;100.00;99625.38;5064682;28;20047;-56
2023/01/15 04:30:35;;;;;;;10.47;1.83;;;;;;;13.66;100.00;99615.19;5062200;28;20038;-55
2023/01/15 04:33:00;;;;;;;7.25;1.63;;;;;;;13.89;100.00;99619.53;5059692;28;20049;-54
2023/01/15 04:35:25;;;;;;;12.43;1.90;;;;;;;14.32;99.66;99614.47;5059074;28;20056;-56
2023/01/15 04:37:56;;;;;;;11.75;2.58;;;;;;;14.31;100.00;99613.66;5064235;28;20037;-55
2023/01/15 04:45:54;;;;;;;15.43;1.47;;;;;;;14.19;100.00;99612.97;5061610;28;20033;-56
2023/01/15 04:48:20;;;;;;;12.68;1.40;;;;;;;14.40;98.91;99618.56;5060609;28;20067;-55
2023/01/15 04:50:45;;;;;;;11.03;1.70;;;;;;;13.99;100.00;99608.13;5059685;28;20034;-55
2023/01/15 04:53:10;;;;;;;16.13;2.10;;;;;;;13.89;100.00;99615.00;5059254;28;20037;-51
2023/01/15 04:55:36;;;;;;;15.77;1.90;;;;;;;14.07;100.00;99614.94;5061041;28;20033;-56
2023/01/15 04:58:02;;;;;;;9.83;1.60;;;;;;;14.42;100.00;99632.59;5061184;28;20041;-56
2023/01/15 05:00:27;;;;;;;10.57;1.47;;;;;;;14.12;100.00;99626.59;5058713;28;20038;-55
2023/01/15 05:02:52;;;;;;;21.10;2.63;;;;;;;14.20;100.00;99626.16;5060224;28;20057;-53
2023/01/15 05:05:18;;;;;;;11.82;1.60;;;;;;;14.16;100.00;99624.19;5054421;28;20029;-55
2023/01/15 05:07:44;;;;;;;9.40;2.00;;;;;;;13.99;98.70;99643.06;5059969;28;20093;-55
2023/01/15 05:10:09;;;;;;;12.07;1.77;;;;;;;13.47;100.00;99640.41;5060822;28;20095;-55
2023/01/15 05:12:35;;;;;;;19.50;2.53;;;;;;;13.79;100.00;99630.16;5062093;28;20030;-55
2023/01/15 05:15:00;;;;;;;22.57;2.27;;;;;;;13.84;99.90;99617.63;5059998;28;20029;-57
2023/01/15 05:17:26;;;;;;;11.50;1.57;;;;;;;13.81;99.65;99626.16;5065744;28;20040;-56
2023/01/15 05:19:51;;;;;;;8.40;1.93;;;;;;;14.12;99.45;99617.69;5062136;28;20350;-56
2023/01/15 05:22:17;;;;;;;11.00;1.93;;;;;;;13.95;99.21;99604.31;5060776;28;20044;-55
2023/01/15 05:24:43;;;;;;;16.08;2.20;;;;;;;13.56;99.81;99616.66;5060369;28;20282;-56
2023/01/15 05:27:09;;;;;;;13.30;2.17;;;;;;;13.68;100.00;99607.69;5062717;28;20037;-53
2023/01/15 05:29:34;;;;;;;13.60;1.60;;;;;;;13.47;100.00;99599.31;5060784;28;20290;-54
2023/01/15 05:32:00;;;;;;;12.60;2.65;;;;;;;13.73;98.86;99610.44;5058932;28;20068;-55
2023/01/15 05:34:26;;;;;;;10.50;1.70;;;;;;;13.19;100.00;99617.13;5061575;28;20113;-53
2023/01/15 05:36:52;;;;;;;10.25;1.60;;;;;;;13.76;99.23;99608.09;5056687;28;20033;-51
2023/01/15 05:39:17;;;;;;;15.52;2.03;;;;;;;13.55;99.78;99606.16;5062031;28;20100;-53
2023/01/15 05:41:49;;;;;;;10.95;1.95;;;;;;;13.34;100.00;99595.88;5060153;28;20038;-53
2023/01/15 05:44:18;;;;;;;9.80;2.00;;;;;;;13.75;100.00;99598.41;5059981;28;20044;-54
2023/01/15 05:46:45;;;;;;;8.13;1.73;;;;;;;13.58;100.00;99601.09;5058982;28;20036;-57
2023/01/15 05:49:16;;;;;;;20.73;3.20;;;;;;;13.59;100.00;99594.66;5061069;28;20052;-56
2023/01/15 05:51:43;;;;;;;18.58;1.80;;;;;;;13.54;100.00;99599.97;5059066;28;20041;-56
2023/01/15 05:54:12;;;;;;;22.25;2.95;;;;;;;13.48;100.00;99588.31;5060076;28;20036;-55
2023/01/15 05:56:38;;;;;;;9.05;1.27;;;;;;;13.51;98.37;99613.88;5060123;28;20033;-53
2023/01/15 05:59:04;;;;;;;13.93;2.10;;;;;;;13.30;100.00;99613.53;5059413;28;20030;-51
2023/01/15 06:01:30;;;;;;;;;;;;;;;13.59;99.04;99618.84;5058633;28;20037;-53
2023/01/15 06:04:00;;;;;;;12.33;1.67;;;;;;;13.64;99.23;99601.19;5059646;28;19975;-54
2023/01/15 06:06:26;;;;;;;6.00;1.20;;;;;;;12.91;100.00;99616.91;5058862;28;20083;-52
2023/01/15 06:08:52;;;;;;;16.25;1.67;;;;;;;13.43;98.75;99612.41;5058997;28;20084;-52
2023/01/15 06:11:18;;;;;;;14.18;1.67;;;;;;;12.68;100.00;99617.00;5063878;28;20025;-54
2023/01/15 06:13:43;;;;;;;13.53;2.57;;;;;;;12.94;100.00;99623.66;5059813;28;20064;-59
2023/01/15 06:16:10;;;;;;;10.27;2.47;;;;;;;13.07;100.00;99627.09;5062592;28;20032;-52
2023/01/15 06:18:37;;;;;;;7.32;2.20;;;;;;;13.53;99.88;99627.88;5057584;28;20032;-53
2023/01/15 06:21:04;;;;;;;15.93;1.90;;;;;;;13.21;99.94;99636.47;5058881;28;20043;-53
2023/01/15 06:23:31;;;;;;;13.95;2.85;;;;;;;13.51;100.00;99635.38;5059454;28;20025;-56
2023/01/15 06:26:00;;;;;;;6.53;1.52;;;;;;;13.99;96.20;99635.81;5060058;28;20033;-54
2023/01/15 06:28:26;;;;;;;10.73;2.03;;;;;;;13.49;99.34;99642.88;5059398;28;20059;-53
2023/01/15 06:30:52;;;;;;;7.20;1.73;;;;;;;13.22;100.00;99639.97;5061208;28;20033;-52
2023/01/15 06:33:18;;;;;;;11.50;1.67;;;;;;;13.10;100.00;99640.84;5059150;28;20128;-52
2023/01/15 06:35:43;;;;;;;8.93;1.70;;;;;;;13.83;98.77;99645.50;5061633;28;20032;-54
2023/01/15 06:38:09;;;;;;;17.38;1.38;;;;;;;13.44;98.22;99658.91;5056589;28;20026;-56
2023/01/15 06:40:35;;;;;;;6.97;1.70;;;;;;;13.28;100.00;99647.06;5062099;28;20096;-55
2023/01/15 06:48:29;;;;;;;13.90;2.17;;;;;;;13.58;99.52;99646.75;5067834;28;20032;-53
2023/01/15 06:50:55;;;;;;;6.10;1.40;;;;;;;13.20;100.00;99649.06;5064341;28;20037;-56
2023/01/15 06:53:20;;;;;;;13.50;1.85;;;;;;;12.60;100.00;99653.06;5063752;28;20282;-52
2023/01/15 06:55:46;;;;;;;14.60;1.95;;;;;;;13.67;99.13;99617.63;5065360;28;20100;-53
2023/01/15 06:58:12;;;;;;;10.73;1.67;;;;;;;12.93;100.00;99642.69;5068666;28;20033;-53
2023/01/15 07:00:43;;;;;;;13.50;2.50;;;;;;;13.08;100.00;99642.13;5066963;28;20034;-55
2023/01/15 07:03:11;;;;;;;11.23;1.70;;;;;;;12.59;100.00;99656.81;5065334;28;20037;-53
2023/01/15 07:05:38;;;;;;;5.38;1.52;;;;;;;13.14;100.00;99649.22;5063690;28;20033;-53
2023/01/15 07:08:03;;;;;;;12.63;2.03;;;;;;;13.28;100.00;99650.56;5062124;28;20033;-49
2023/01/15 07:10:29;;;;;;;12.27;1.73;;;;;;;13.34;100.00;99644.19;5063936;28;20052;-55
2023/01/15 07:12:54;;;;;;;14.00;1.50;;;;;;;13.00;100.00;99649.53;5060955;28;20045;-53
2023/01/15 07:15:20;;;;;;;15.00;2.00;;;;;;;13.01;100.00;99640.44;5061888;28;20098;-54
2023/01/15 07:17:45;;;;;;;12.25;1.45;;;;;;;12.92;100.00;99649.94;5062993;28;20033;-51
2023/01/15 07:20:11;;;;;;;6.93;1.07;;;;;;;13.06;100.00;99642.41;5059578;28;20038;-54
2023/01/15 07:22:37;;;;;;;17.33;2.92;;;;;;;12.89;100.00;99661.94;5066863;28;20073;-54
2023/01/15 07:25:03;;;;;;;19.93;3.40;;;;;;;13.36;98.24;99659.25;5055560;28;20038;-51
2023/01/15 07:27:29;;;;;;;13.95;1.77;;;;;;;13.00;99.91;99649.53;5066641;28;20270;-52
2023/01/15 07:29:54;;;;;;;12.87;2.50;;;;;;;12.98;100.00;99658.88;5061057;28;20037;-53
2023/01/15 07:32:20;;;;;;;3.10;1.57;;;;;;;12.75;100.00;99661.41;5063316;28;20064;-51
2023/01/15 07:34:45;;;;;;;9.80;2.17;;;;;;;13.37;98.56;99655.50;5064758;28;20301;-54
2023/01/15 07:37:11;;;;;;;6.87;1.20;;;;;;;13.14;97.95;99659.97;5066676;28;20059;-54
2023/01/15 07:39:36;;;;;;;17.93;1.73;;;;;;;13.04;98.93;99645.31;5064800;28;20125;-53
2023/01/15 07:50:18;;;;;;;7.78;1.23;;;;;;;12.54;100.00;99648.66;5062827;28;20033;-55
2023/01/15 07:52:44;;;;;;;7.43;1.63;;;;;;;12.81;98.89;99670.38;5061305;28;20033;-54
2023/01/15 07:55:11;;;;;;;10.60;2.23;;;;;;;12.82;98.82;99649.72;5059531;28;20089;-55
2023/01/15 07:57:37;;;;;;;13.63;1.73;;;;;;;12.86;99.38;99656.25;5063236;28;20040;-53
2023/01/15 08:00:11;;;;;;;10.25;1.80;;;;;;;12.40;98.78;99681.09;5063484;28;20060;-53
2023/01/15 08:02:39;;;;;;;16.42;1.45;;;;;;;12.67;98.38;99659.09;5059281;28;20091;-55
2023/01/15 08:05:06;;;;;;;12.00;1.33;;;;;;;12.73;97.35;99658.16;5063347;28;20033;-50
2023/01/15 08:07:37;;;;;;;12.57;2.20;;;;;;;12.93;96.86;99648.88;5060741;28;20033;-55
2023/01/15 08:10:03;;;;;;;7.50;1.30;;;;;;;12.94;97.29;99652.38;5056806;28;20056;-53
2023/01/15 08:15:12;;;;;;;12.57;1.50;;;;;;;12.30;98.89;99643.34;5063275;28;20040;-54
2023/01/15 08:17:43;;;;;;;11.13;2.77;;;;;;;12.59;97.73;99663.00;5060926;28;20030;-54
2023/01/15 08:20:14;;;;;;;13.02;2.47;;;;;;;12.56;98.42;99654.59;5066874;28;20055;-50
2023/01/15 08:22:41;;;;;;;21.50;2.38;;;;;;;12.82;95.60;99663.97;5061686;28;20044;-55
2023/01/15 08:25:08;;;;;;;9.63;2.10;;;;;;;12.42;98.06;99646.81;5063262;28;20100;-55
2023/01/15 08:27:34;;;;;;;13.13;1.70;;;;;;;12.89;95.00;99647.72;5064133;28;20102;-55
2023/01/15 08:29:59;;;;;;;13.98;2.17;;;;;;;12.70;95.63;99649.78;5062351;28;20037;-54
2023/01/15 08:32:25;;;;;;;15.33;2.30;;;;;;;12.70;95.13;99660.50;5057983;28;20053;-54
2023/01/15 08:34:51;;;;;;;9.50;1.70;;;;;;;12.50;95.54;99671.66;5059947;28;20032;-56
2023/01/15 08:37:17;;;;;;;11.70;1.80;;;;;;;12.78;92.84;99676.22;5063215;28;20029;-53
2023/01/15 08:39:42;;;;;;;8.83;1.77;;;;;;;12.18;94.31;99648.75;5062338;28;20040;-54
2023/01/15 08:42:08;;;;;;;15.40;2.17;;;;;;;12.73;93.31;99654.66;5063028;28;20045;-54
2023/01/15 08:44:33;;;;;;;8.82;1.60;;;;;;;12.46;92.39;99661.41;5061399;28;20102;-50
2023/01/15 08:46:59;;;;;;;7.55;2.00;;;;;;;12.67;92.17;99672.50;5062266;28;20029;-54
2023/01/15 08:49:25;;;;;;;23.93;2.50;;;;;;;12.53;92.46;99661.25;5065441;28;20121;-55
2023/01/15 08:51:51;;;;;;;5.43;1.10;;;;;;;12.66;92.65;99667.41;5059467;28;20037;-55
2023/01/15 08:54:19;;;;;;;8.27;1.58;;;;;;;12.45;91.85;99662.41;5064913;28;20048;-54
2023/01/15 08:56:45;;;;;;;10.20;1.58;;;;;;;12.22;92.18;99671.34;5061883;28;20037;-56
2023/01/15 08:59:11;;;;;;;8.63;1.73;;;;;;;12.66;91.34;99646.75;5061567;28;20118;-55
2023/01/15 09:01:36;;;;;;;5.43;1.53;;;;;;;12.40;90.68;99656.16;5063916;28;20029;-55
2023/01/15 09:04:02;;;;;;;5.87;1.50;;;;;;;12.88;90.51;99646.91;5063093;28;20032;-54
2023/01/15 09:06:28;;;;;;;17.13;1.85;;;;;;;12.97;88.84;99647.34;5063231;28;20037;-54
2023/01/15 09:08:53;;;;;;;13.43;2.60;;;;;;;12.89;88.29;99653.06;5065846;28;20053;-55
2023/01/15 09:11:19;;;;;;;15.80;1.80;;;;;;;13.04;89.12;99656.03;5061511;28;20037;-53
2023/01/15 09:13:46;;;;;;;6.20;1.40;;;;;;;13.18;87.09;99661.13;5062800;28;20060;-54
2023/01/15 09:16:12;;;;;;;12.20;2.00;;;;;;;13.12;85.81;99665.59;5057771;28;20259;-54
2023/01/15 09:18:38;;;;;;;20.33;4.50;;;;;;;12.59;88.09;99652.25;5064493;28;20089;-52
2023/01/15 09:21:05;;;;;;;9.60;1.85;;;;;;;13.66;85.03;99652.81;5058298;28;20033;-51
2023/01/15 09:23:31;;;;;;;6.68;1.38;;;;;;;12.83;86.94;99667.44;5056831;28;20052;-54
2023/01/15 09:26:04;;;;;;;13.57;1.63;;;;;;;13.02;87.39;99662.69;5058976;28;20029;-54
2023/01/15 09:28:32;;;;;;;5.88;1.40;;;;;;;13.91;83.90;99650.50;5059632;28;20032;-52
2023/01/15 09:30:58;;;;;;;13.20;2.00;;;;;;;14.07;81.45;99691.03;5057527;28;20033;-55
2023/01/15 09:33:24;;;;;;;13.75;2.65;;;;;;;15.08;78.19;99655.13;5055528;28;20048;-57
2023/01/15 09:35:50;;;;;;;13.17;1.83;;;;;;;15.20;75.62;99658.47;5060101;28;20025;-55
2023/01/15 09:38:19;;;;;;;7.22;1.50;;;;;;;15.81;74.94;99641.16;5057693;28;20058;-54
2023/01/15 09:40:48;;;;;;;7.97;1.93;;;;;;;15.37;74.05;99657.53;5057250;28;20038;-53
2023/01/15 09:43:19;;;;;;;8.27;1.77;;;;;;;16.22;72.78;99654.09;5058545;28;20286;-55
2023/01/15 09:45:53;;;;;;;15.10;1.77;;;;;;;16.90;70.46;99674.06;5055144;28;20365;-56
2023/01/15 09:48:26;;;;;;;17.57;3.07;;;;;;;16.69;69.20;99663.22;5058082;28;20289;-55
2023/01/15 09:51:21;;;;;;;9.53;2.17;;;;;;;17.27;68.96;99659.56;5053282;28;20341;-53
2023/01/15 09:54:10;;;;;;;11.37;2.97;;;;;;;17.15;69.51;99653.63;5058095;28;20290;-55
2023/01/15 09:56:36;;;;;;;10.03;1.87;;;;;;;16.31;69.93;99665.19;5054847;28;20286;-55
2023/01/15 09:59:19;;;;;;;;;;;;;;;17.37;66.83;99674.16;5060920;28;20270;-52
2023/01/15 10:01:47;;;;;;;11.27;2.47;;;;;;;16.90;68.13;99668.66;5056579;28;19912;-57
2023/01/15 10:04:30;;;;;;;6.90;1.83;;;;;;;15.63;70.09;99683.63;5057130;28;20293;-52
2023/01/15 10:07:07;;;;;;;11.33;1.73;;;;;;;17.11;67.18;99679.53;5056570;28;20263;-54
2023/01/15 10:09:37;;;;;;;13.73;1.98;;;;;;;16.60;67.83;99675.56;5057480;28;20277;-55
2023/01/15 10:12:35;;;;;;;10.70;2.20;;;;;;;17.09;67.21;99665.50;5059837;28;20037;-56
2023/01/15 10:15:19;;;;;;;18.77;2.17;;;;;;;17.42;65.59;99666.88;5060616;28;20266;-56
2023/01/15 10:17:48;;;;;;;9.30;2.00;;;;;;;16.94;67.45;99660.81;5061686;28;20282;-52
2023/01/15 10:20:21;;;;;;;18.00;2.00;;;;;;;17.04;65.71;99693.31;5060654;28;20286;-54
2023/01/15 10:23:17;;;;;;;16.33;2.47;;;;;;;17.05;66.58;99674.13;5059090;28;20280;-55
2023/01/15 10:25:48;;;;;;;15.47;1.80;;;;;;;17.28;65.03;99673.88;5057296;28;20297;-52
2023/01/15 10:28:43;;;;;;;11.13;1.43;;;;;;;17.39;63.87;99686.31;5059263;28;20338;-54
2023/01/15 10:31:18;;;;;;;9.93;1.63;;;;;;;17.65;64.20;99683.66;5050130;28;20279;-54
2023/01/15 10:34:06;;;;;;;6.57;2.20;;;;;;;16.43;65.61;99719.78;5054134;28;20324;-50
2023/01/15 10:36:41;;;;;;;10.00;1.80;;;;;;;17.16;65.09;99693.84;5055479;28;20309;-56
2023/01/15 10:39:19;;;;;;;6.10;2.03;;;;;;;17.47;62.80;99753.38;5055997;28;20033;-55
2023/01/15 10:42:15;;;;;;;7.93;2.10;;;;;;;17.08;64.22;99701.69;5057813;28;20366;-53
2023/01/15 10:44:43;;;;;;;8.27;1.97;;;;;;;16.99;62.44;99702.19;5051784;28;20294;-53
2023/01/15 10:47:17;;;;;;;13.90;2.43;;;;;;;16.11;63.74;99723.34;5059126;28;20275;-54
2023/01/15 10:49:43;;;;;;;8.73;1.50;;;;;;;16.61;64.67;99686.13;5055779;28;20289;-54
2023/01/15 10:52:26;;;;;;;17.42;2.35;;;;;;;15.69;66.47;99713.34;5058730;28;20337;-55
2023/01/15 10:55:18;;;;;;;8.13;1.40;;;;;;;16.69;65.12;99694.78;5058217;28;20052;-56
2023/01/15 10:58:12;;;;;;;10.33;2.00;;;;;;;16.94;64.42;99696.75;5054051;28;20293;-56
2023/01/15 11:00:39;;;;;;;7.90;1.80;;;;;;;16.82;63.98;99696.16;5053833;28;20277;-55
2023/01/15 11:03:13;;;;;;;;;;;;;;;16.65;64.38;99742.28;5056345;28;20288;-49
2023/01/15 11:05:39;;;;;;;8.57;1.87;;;;;;;15.25;70.02;99692.72;5058813;28;19977;-49
2023/01/15 11:08:11;;;;;;;19.20;3.15;;;;;;;14.97;71.29;99686.53;5056470;28;20299;-46
2023/01/15 11:10:37;;;;;;;9.80;2.33;;;;;;;14.99;74.36;99684.38;5058588;28;20033;-48
2023/01/15 11:21:41;;;;;;;13.13;2.20;;;;;;;15.74;80.53;99695.28;5059057;28;20274;-49
2023/01/15 11:24:14;;;;;;;11.50;1.60;;;;;;;16.95;74.28;99673.25;5058240;28;20273;-50
2023/01/15 11:26:39;;;;;;;13.17;2.67;;;;;;;16.09;75.15;99690.44;5052660;28;20746;-54
2023/01/15 11:29:23;;;;;;;9.10;1.40;;;;;;;16.10;73.32;99686.66;5061632;28;20282;-53
2023/01/15 11:31:49;;;;;;;13.83;2.10;;;;;;;16.03;74.45;99678.00;5059868;28;20045;-54
2023/01/15 11:34:20;;;;;;;9.13;2.47;;;;;;;14.55;88.57;99693.28;5063026;28;20277;-50
2023/01/15 11:36:46;;;;;;;13.83;1.87;;;;;;;14.39;97.96;99686.88;5060774;28;20393;-56
2023/01/15 11:39:27;;;;;;;9.33;2.33;;;;;;;14.69;100.00;99674.88;5061090;28;20267;-54
2023/01/15 11:50:52;;;;;;;10.73;1.85;;;;;;;13.69;99.99;99688.03;5067296;28;20269;-52
2023/01/15 11:53:24;;;;;;;12.63;3.08;;;;;;;15.03;94.05;99683.63;5060462;28;20044;-55
2023/01/15 11:55:59;;;;;;;16.00;1.87;;;;;;;14.18;93.38;99679.34;5058697;28;20033;-54
2023/01/15 11:58:32;;;;;;;13.83;1.90;;;;;;;15.09;90.47;99673.72;5058311;28;20330;-56
2023/01/15 12:00:58;;;;;;;11.10;1.73;;;;;;;15.46;85.41;99686.44;5058300;28;20275;-54
2023/01/15 12:03:28;;;;;;;8.57;1.60;;;;;;;15.04;86.60;99701.41;5060327;28;20258;-50
2023/01/15 12:06:06;;;;;;;8.57;1.93;;;;;;;15.01;86.77;99661.53;5059466;28;20085;-54
2023/01/15 12:08:44;;;;;;;11.13;1.03;;;;;;;15.55;83.48;99713.75;5062198;28;20328;-54
2023/01/15 12:11:35;;;;;;;7.93;2.30;;;;;;;15.03;86.05;99669.34;5058099;28;20799;-56
2023/01/15 12:14:30;;;;;;;6.13;1.63;;;;;;;15.19;87.08;99656.84;5058951;28;20276;-54
2023/01/15 12:17:06;;;;;;;8.03;1.70;;;;;;;14.92;97.38;99657.66;5056730;28;20263;-56
2023/01/15 12:19:53;;;;;;;7.10;1.77;;;;;;;14.32;100.00;99673.63;5056269;28;20277;-55
2023/01/15 12:22:57;;;;;;;6.88;2.10;;;;;;;14.35;100.00;99659.69;5060739;28;20037;-55
2023/01/15 12:25:32;;;;;;;6.78;1.70;;;;;;;13.10;100.00;99678.44;5062801;28;20039;-57